createdAt,value
2019-02-24T00:00:30.206Z,1033.26
2019-02-24T00:01:30.198Z,1033.26
2019-02-24T00:02:30.179Z,1033.25
2019-02-24T00:03:30.221Z,1033.10
2019-02-24T00:04:30.188Z,1033.07
2019-02-24T00:05:30.149Z,1033.12
2019-02-24T00:06:30.291Z,1033.13
2019-02-24T00:07:30.141Z,1033.14
2019-02-24T00:08:30.128Z,1033.16
2019-02-24T00:09:30.142Z,1033.13
2019-02-24T00:10:30.103Z,1033.13
2019-02-24T00:11:30.102Z,1033.08
2019-02-24T00:12:30.089Z,1033.00
2019-02-24T00:13:30.146Z,1033.02
2019-02-24T00:14:30.055Z,1032.98
2019-02-24T00:15:30.050Z,1033.03
2019-02-24T00:16:30.041Z,1033.06
2019-02-24T00:17:30.032Z,1033.00
2019-02-24T00:18:30.045Z,1032.98
2019-02-24T00:19:30.039Z,1032.97
2019-02-24T00:20:29.999Z,1033.05
2019-02-24T00:21:29.994Z,1033.00
2019-02-24T00:22:29.988Z,1032.96
2019-02-24T00:23:29.970Z,1032.96
2019-02-24T00:24:29.959Z,1032.95
2019-02-24T00:25:29.967Z,1033.00
2019-02-24T00:26:29.929Z,1032.95
2019-02-24T00:27:29.933Z,1033.02
2019-02-24T00:28:29.950Z,1033.06
2019-02-24T00:29:29.933Z,1033.01
2019-02-24T00:30:30.056Z,1033.04
2019-02-24T00:31:29.899Z,1032.98
2019-02-24T00:32:29.896Z,1032.98
2019-02-24T00:33:29.873Z,1033.08
2019-02-24T00:34:29.849Z,1032.95
2019-02-24T00:35:29.846Z,1032.97
2019-02-24T00:36:29.855Z,1032.97
2019-02-24T00:37:29.920Z,1032.97
2019-02-24T00:38:29.812Z,1032.94
2019-02-24T00:39:29.802Z,1032.87
2019-02-24T00:40:29.796Z,1032.87
2019-02-24T00:41:29.784Z,1032.92
2019-02-24T00:42:29.796Z,1032.89
2019-02-24T00:43:29.768Z,1032.92
2019-02-24T00:44:29.744Z,1032.84
2019-02-24T00:45:29.736Z,1032.83
2019-02-24T00:46:29.725Z,1032.83
2019-02-24T00:47:29.744Z,1032.76
2019-02-24T00:48:29.941Z,1032.77
2019-02-24T00:49:29.722Z,1032.75
2019-02-24T00:50:29.691Z,1032.74
2019-02-24T00:51:29.680Z,1032.59
2019-02-24T00:52:29.685Z,1032.66
2019-02-24T00:53:29.661Z,1032.60
2019-02-24T00:54:29.647Z,1032.64
2019-02-24T00:55:30.689Z,1032.64
2019-02-24T00:56:29.629Z,1032.62
2019-02-24T00:57:30.081Z,1032.59
2019-02-24T00:58:29.600Z,1032.57
2019-02-24T00:59:29.604Z,1032.54
2019-02-24T01:00:29.610Z,1032.51
2019-02-24T01:01:29.705Z,1032.50
2019-02-24T01:02:29.990Z,1032.63
2019-02-24T01:03:29.571Z,1032.59
2019-02-24T01:04:29.543Z,1032.63
2019-02-24T01:05:29.542Z,1032.64
2019-02-24T01:06:29.524Z,1032.65
2019-02-24T01:07:29.524Z,1032.65
2019-02-24T01:08:29.508Z,1032.67
2019-02-24T01:09:29.495Z,1032.69
2019-02-24T01:10:29.483Z,1032.77
2019-02-24T01:11:29.469Z,1032.74
2019-02-24T01:12:29.478Z,1032.75
2019-02-24T01:13:29.482Z,1032.70
2019-02-24T01:14:29.817Z,1032.70
2019-02-24T01:15:29.435Z,1032.62
2019-02-24T01:16:29.433Z,1032.66
2019-02-24T01:17:29.436Z,1032.63
2019-02-24T01:18:29.399Z,1032.67
2019-02-24T01:19:29.419Z,1032.68
2019-02-24T01:20:29.373Z,1032.71
2019-02-24T01:21:29.366Z,1032.69
2019-02-24T01:22:29.353Z,1032.71
2019-02-24T01:23:29.348Z,1032.73
2019-02-24T01:24:29.365Z,1032.70
2019-02-24T01:25:29.343Z,1032.71
2019-02-24T01:26:29.311Z,1032.70
2019-02-24T01:27:29.341Z,1032.66
2019-02-24T01:28:29.303Z,1032.61
2019-02-24T01:29:29.284Z,1032.73
2019-02-24T01:30:29.302Z,1032.76
2019-02-24T01:31:29.256Z,1032.79
2019-02-24T01:32:29.246Z,1032.76
2019-02-24T01:33:29.243Z,1032.77
2019-02-24T01:34:29.243Z,1032.78
2019-02-24T01:35:29.223Z,1032.78
2019-02-24T01:36:29.234Z,1032.80
2019-02-24T01:37:29.206Z,1032.81
2019-02-24T01:38:29.195Z,1032.83
2019-02-24T01:39:29.199Z,1032.75
2019-02-24T01:40:29.171Z,1032.78
2019-02-24T01:41:29.184Z,1032.85
2019-02-24T01:42:29.154Z,1032.87
2019-02-24T01:43:29.136Z,1032.84
2019-02-24T01:44:29.125Z,1032.94
2019-02-24T01:45:29.133Z,1032.96
2019-02-24T01:46:29.105Z,1032.96
2019-02-24T01:47:29.101Z,1032.95
2019-02-24T01:48:29.108Z,1032.90
2019-02-24T01:49:29.084Z,1032.83
2019-02-24T01:50:29.072Z,1032.82
2019-02-24T01:51:29.073Z,1032.82
2019-02-24T01:52:29.046Z,1032.84
2019-02-24T01:53:29.032Z,1032.78
2019-02-24T01:54:29.071Z,1032.83
2019-02-24T01:55:29.018Z,1032.72
2019-02-24T01:56:29.009Z,1032.77
2019-02-24T01:57:29.020Z,1032.76
2019-02-24T01:58:34.811Z,1032.73
2019-02-24T01:59:30.003Z,1032.62
2019-02-24T02:00:28.967Z,1032.59
2019-02-24T02:01:28.954Z,1032.53
2019-02-24T02:02:28.951Z,1032.50
2019-02-24T02:03:28.930Z,1032.46
2019-02-24T02:04:28.958Z,1032.54
2019-02-24T02:05:28.964Z,1032.53
2019-02-24T02:06:28.917Z,1032.53
2019-02-24T02:07:28.900Z,1032.55
2019-02-24T02:08:28.921Z,1032.50
2019-02-24T02:09:28.876Z,1032.48
2019-02-24T02:10:28.863Z,1032.48
2019-02-24T02:11:28.851Z,1032.42
2019-02-24T02:12:28.834Z,1032.29
2019-02-24T02:13:28.849Z,1032.33
2019-02-24T02:14:28.820Z,1032.25
2019-02-24T02:15:28.803Z,1032.28
2019-02-24T02:16:28.830Z,1032.30
2019-02-24T02:17:28.782Z,1032.28
2019-02-24T02:18:28.774Z,1032.37
2019-02-24T02:19:28.770Z,1032.32
2019-02-24T02:20:28.760Z,1032.26
2019-02-24T02:21:28.752Z,1032.25
2019-02-24T02:22:28.765Z,1032.21
2019-02-24T02:23:28.724Z,1032.24
2019-02-24T02:24:28.713Z,1032.26
2019-02-24T02:25:28.717Z,1032.30
2019-02-24T02:26:28.691Z,1032.27
2019-02-24T02:27:28.687Z,1032.29
2019-02-24T02:28:28.696Z,1032.26
2019-02-24T02:29:28.686Z,1032.31
2019-02-24T02:30:28.655Z,1032.26
2019-02-24T02:31:28.651Z,1032.24
2019-02-24T02:32:28.636Z,1032.25
2019-02-24T02:33:28.639Z,1032.27
2019-02-24T02:34:28.637Z,1032.26
2019-02-24T02:35:28.617Z,1032.22
2019-02-24T02:36:28.606Z,1032.24
2019-02-24T02:37:28.594Z,1032.25
2019-02-24T02:38:28.588Z,1032.21
2019-02-24T02:39:28.568Z,1032.15
2019-02-24T02:40:28.556Z,1032.16
2019-02-24T02:41:28.543Z,1032.20
2019-02-24T02:42:28.543Z,1032.18
2019-02-24T02:43:28.548Z,1032.23
2019-02-24T02:44:28.548Z,1032.19
2019-02-24T02:45:28.512Z,1032.25
2019-02-24T02:46:28.505Z,1032.19
2019-02-24T02:47:28.543Z,1032.22
2019-02-24T02:48:28.469Z,1032.17
2019-02-24T02:49:28.476Z,1032.13
2019-02-24T02:50:28.456Z,1032.15
2019-02-24T02:51:28.444Z,1032.18
2019-02-24T02:52:28.438Z,1032.16
2019-02-24T02:53:28.428Z,1032.20
2019-02-24T02:54:28.457Z,1032.19
2019-02-24T02:55:28.396Z,1032.24
2019-02-24T02:56:28.398Z,1032.23
2019-02-24T02:57:28.375Z,1032.22
2019-02-24T02:58:28.369Z,1032.18
2019-02-24T02:59:28.362Z,1032.18
2019-02-24T03:00:28.388Z,1032.20
2019-02-24T03:01:28.334Z,1032.18
2019-02-24T03:02:28.322Z,1032.16
2019-02-24T03:03:28.319Z,1032.18
2019-02-24T03:04:28.311Z,1032.17
2019-02-24T03:05:28.302Z,1032.09
2019-02-24T03:06:28.304Z,1032.16
2019-02-24T03:07:28.289Z,1032.18
2019-02-24T03:08:28.260Z,1032.20
2019-02-24T03:09:28.248Z,1032.17
2019-02-24T03:10:28.240Z,1032.19
2019-02-24T03:11:28.256Z,1032.19
2019-02-24T03:12:28.235Z,1032.15
2019-02-24T03:13:28.215Z,1032.13
2019-02-24T03:14:28.203Z,1032.18
2019-02-24T03:15:28.193Z,1032.05
2019-02-24T03:16:28.200Z,1032.11
2019-02-24T03:17:28.173Z,1032.02
2019-02-24T03:18:28.166Z,1032.02
2019-02-24T03:19:28.150Z,1032.06
2019-02-24T03:20:28.135Z,1032.07
2019-02-24T03:21:28.148Z,1032.09
2019-02-24T03:22:31.065Z,1032.09
2019-02-24T03:23:28.120Z,1032.15
2019-02-24T03:24:28.113Z,1032.06
2019-02-24T03:25:28.091Z,1032.06
2019-02-24T03:26:28.082Z,1032.07
2019-02-24T03:27:28.088Z,1032.08
2019-02-24T03:28:28.054Z,1032.10
2019-02-24T03:29:28.046Z,1032.04
2019-02-24T03:30:28.045Z,1032.02
2019-02-24T03:31:28.042Z,1032.01
2019-02-24T03:32:28.050Z,1031.94
2019-02-24T03:33:28.026Z,1031.96
2019-02-24T03:34:27.992Z,1031.97
2019-02-24T03:35:27.989Z,1031.94
2019-02-24T03:36:27.986Z,1031.86
2019-02-24T03:37:27.968Z,1031.95
2019-02-24T03:38:27.981Z,1031.96
2019-02-24T03:39:27.944Z,1031.93
2019-02-24T03:40:27.932Z,1031.97
2019-02-24T03:41:27.928Z,1032.03
2019-02-24T03:42:27.924Z,1032.08
2019-02-24T03:43:27.931Z,1032.03
2019-02-24T03:44:27.901Z,1032.05
2019-02-24T03:45:27.922Z,1032.06
2019-02-24T03:46:27.891Z,1032.13
2019-02-24T03:47:27.880Z,1032.22
2019-02-24T03:48:27.878Z,1032.19
2019-02-24T03:49:27.846Z,1032.25
2019-02-24T03:50:27.850Z,1032.19
2019-02-24T03:51:27.825Z,1032.18
2019-02-24T03:52:27.808Z,1032.17
2019-02-24T03:53:27.835Z,1032.10
2019-02-24T03:54:28.265Z,1032.09
2019-02-24T03:55:27.790Z,1032.06
2019-02-24T03:56:27.778Z,1032.04
2019-02-24T03:57:27.762Z,1032.01
2019-02-24T03:58:27.755Z,1031.93
2019-02-24T03:59:27.756Z,1031.93
2019-02-24T04:00:27.726Z,1031.88
2019-02-24T04:01:27.723Z,1031.90
2019-02-24T04:02:27.708Z,1031.88
2019-02-24T04:03:27.701Z,1031.88
2019-02-24T04:04:27.714Z,1031.86
2019-02-24T04:05:27.716Z,1031.81
2019-02-24T04:06:28.561Z,1031.78
2019-02-24T04:07:27.659Z,1031.85
2019-02-24T04:08:27.653Z,1031.75
2019-02-24T04:09:27.641Z,1031.81
2019-02-24T04:10:27.629Z,1031.75
2019-02-24T04:11:27.633Z,1031.79
2019-02-24T04:12:27.602Z,1031.71
2019-02-24T04:13:27.592Z,1031.76
2019-02-24T04:14:27.629Z,1031.74
2019-02-24T04:15:27.589Z,1031.74
2019-02-24T04:16:27.592Z,1031.68
2019-02-24T04:17:27.558Z,1031.64
2019-02-24T04:18:27.557Z,1031.61
2019-02-24T04:19:27.532Z,1031.65
2019-02-24T04:20:27.520Z,1031.57
2019-02-24T04:21:27.554Z,1031.53
2019-02-24T04:22:27.510Z,1031.48
2019-02-24T04:23:27.490Z,1031.53
2019-02-24T04:24:27.479Z,1031.47
2019-02-24T04:25:27.474Z,1031.38
2019-02-24T04:26:27.457Z,1031.46
2019-02-24T04:27:27.485Z,1031.46
2019-02-24T04:28:27.458Z,1031.45
2019-02-24T04:29:27.433Z,1031.46
2019-02-24T04:30:27.432Z,1031.40
2019-02-24T04:31:27.407Z,1031.39
2019-02-24T04:32:27.398Z,1031.44
2019-02-24T04:33:27.407Z,1031.44
2019-02-24T04:34:27.400Z,1031.43
2019-02-24T04:35:27.372Z,1031.46
2019-02-24T04:36:27.372Z,1031.41
2019-02-24T04:37:27.377Z,1031.49
2019-02-24T04:38:27.337Z,1031.40
2019-02-24T04:39:27.333Z,1031.40
2019-02-24T04:40:27.327Z,1031.39
2019-02-24T04:41:27.315Z,1031.33
2019-02-24T04:42:27.312Z,1031.32
2019-02-24T04:43:27.321Z,1031.29
2019-02-24T04:44:27.273Z,1031.29
2019-02-24T04:45:27.265Z,1031.30
2019-02-24T04:46:27.254Z,1031.36
2019-02-24T04:47:27.600Z,1031.42
2019-02-24T04:48:27.296Z,1031.33
2019-02-24T04:49:27.268Z,1031.43
2019-02-24T04:50:27.240Z,1031.45
2019-02-24T04:51:27.208Z,1031.40
2019-02-24T04:52:27.190Z,1031.33
2019-02-24T04:53:27.191Z,1031.44
2019-02-24T04:54:27.198Z,1031.39
2019-02-24T04:55:27.163Z,1031.43
2019-02-24T04:56:27.153Z,1031.43
2019-02-24T04:57:27.143Z,1031.47
2019-02-24T04:58:27.136Z,1031.50
2019-02-24T04:59:34.743Z,1031.53
2019-02-24T05:00:28.121Z,1031.54
2019-02-24T05:01:27.108Z,1031.61
2019-02-24T05:02:27.098Z,1031.57
2019-02-24T05:03:27.077Z,1031.61
2019-02-24T05:04:27.099Z,1031.60
2019-02-24T05:05:27.066Z,1031.60
2019-02-24T05:06:27.048Z,1031.62
2019-02-24T05:07:27.045Z,1031.59
2019-02-24T05:08:27.043Z,1031.55
2019-02-24T05:09:27.018Z,1031.56
2019-02-24T05:10:27.029Z,1031.56
2019-02-24T05:11:27.012Z,1031.54
2019-02-24T05:12:26.999Z,1031.59
2019-02-24T05:13:26.985Z,1031.53
2019-02-24T05:14:26.988Z,1031.59
2019-02-24T05:15:26.956Z,1031.53
2019-02-24T05:16:26.946Z,1031.63
2019-02-24T05:17:26.989Z,1031.70
2019-02-24T05:18:26.942Z,1031.72
2019-02-24T05:19:26.919Z,1031.69
2019-02-24T05:20:26.913Z,1031.71
2019-02-24T05:21:26.923Z,1031.70
2019-02-24T05:22:26.888Z,1031.70
2019-02-24T05:23:26.872Z,1031.75
2019-02-24T05:24:26.880Z,1031.70
2019-02-24T05:25:26.860Z,1031.73
2019-02-24T05:26:26.883Z,1031.76
2019-02-24T05:27:26.831Z,1031.74
2019-02-24T05:28:26.820Z,1031.80
2019-02-24T05:29:26.813Z,1031.81
2019-02-24T05:30:26.809Z,1031.79
2019-02-24T05:31:26.799Z,1031.80
2019-02-24T05:32:26.807Z,1031.80
2019-02-24T05:33:26.776Z,1031.81
2019-02-24T05:34:26.766Z,1031.70
2019-02-24T05:35:26.755Z,1031.84
2019-02-24T05:36:26.746Z,1031.92
2019-02-24T05:37:26.749Z,1031.82
2019-02-24T05:38:26.722Z,1031.87
2019-02-24T05:39:26.721Z,1031.87
2019-02-24T05:40:26.732Z,1031.89
2019-02-24T05:41:26.688Z,1031.77
2019-02-24T05:42:26.699Z,1031.74
2019-02-24T05:43:26.679Z,1031.80
2019-02-24T05:44:26.667Z,1031.78
2019-02-24T05:45:26.653Z,1031.81
2019-02-24T05:46:26.711Z,1031.79
2019-02-24T05:47:26.650Z,1031.77
2019-02-24T05:48:26.630Z,1031.75
2019-02-24T05:49:26.605Z,1031.80
2019-02-24T05:50:26.599Z,1031.77
2019-02-24T05:51:26.593Z,1031.79
2019-02-24T05:52:26.611Z,1031.73
2019-02-24T05:53:26.569Z,1031.71
2019-02-24T05:54:26.561Z,1031.75
2019-02-24T05:55:26.543Z,1031.72
2019-02-24T05:56:26.539Z,1031.70
2019-02-24T05:57:26.530Z,1031.71
2019-02-24T05:58:26.556Z,1031.67
2019-02-24T05:59:26.504Z,1031.67
2019-02-24T06:00:26.494Z,1031.65
2019-02-24T06:01:26.490Z,1031.66
2019-02-24T06:02:26.479Z,1031.59
2019-02-24T06:03:26.469Z,1031.56
2019-02-24T06:04:26.480Z,1031.54
2019-02-24T06:05:26.506Z,1031.56
2019-02-24T06:06:26.438Z,1031.54
2019-02-24T06:07:26.424Z,1031.55
2019-02-24T06:08:26.413Z,1031.58
2019-02-24T06:09:26.422Z,1031.57
2019-02-24T06:10:26.392Z,1031.59
2019-02-24T06:11:26.388Z,1031.61
2019-02-24T06:12:26.397Z,1031.66
2019-02-24T06:13:26.362Z,1031.64
2019-02-24T06:14:26.374Z,1031.62
2019-02-24T06:15:26.362Z,1031.54
2019-02-24T06:16:26.341Z,1031.52
2019-02-24T06:17:26.342Z,1031.57
2019-02-24T06:18:26.316Z,1031.55
2019-02-24T06:19:26.295Z,1031.56
2019-02-24T06:20:26.344Z,1031.53
2019-02-24T06:21:26.275Z,1031.55
2019-02-24T06:22:26.281Z,1031.54
2019-02-24T06:23:26.262Z,1031.57
2019-02-24T06:24:26.258Z,1031.53
2019-02-24T06:25:26.260Z,1031.53
2019-02-24T06:26:26.246Z,1031.60
2019-02-24T06:27:26.214Z,1031.56
2019-02-24T06:28:26.205Z,1031.53
2019-02-24T06:29:26.209Z,1031.51
2019-02-24T06:30:26.209Z,1031.46
2019-02-24T06:31:26.200Z,1031.46
2019-02-24T06:32:26.167Z,1031.53
2019-02-24T06:33:26.156Z,1031.51
2019-02-24T06:34:26.145Z,1031.47
2019-02-24T06:35:26.138Z,1031.47
2019-02-24T06:36:26.156Z,1031.53
2019-02-24T06:37:26.119Z,1031.52
2019-02-24T06:38:26.116Z,1031.53
2019-02-24T06:39:26.090Z,1031.40
2019-02-24T06:40:26.084Z,1031.42
2019-02-24T06:41:26.089Z,1031.40
2019-02-24T06:42:26.061Z,1031.45
2019-02-24T06:43:26.056Z,1031.44
2019-02-24T06:44:26.047Z,1031.43
2019-02-24T06:45:26.034Z,1031.49
2019-02-24T06:46:26.046Z,1031.49
2019-02-24T06:47:26.016Z,1031.52
2019-02-24T06:48:26.009Z,1031.54
2019-02-24T06:49:25.996Z,1031.65
2019-02-24T06:50:34.887Z,1031.51
2019-02-24T06:51:27.035Z,1031.71
2019-02-24T06:52:28.006Z,1031.63
2019-02-24T06:53:25.972Z,1031.63
2019-02-24T06:54:25.941Z,1031.71
2019-02-24T06:55:25.932Z,1031.64
2019-02-24T06:56:25.927Z,1031.69
2019-02-24T06:57:25.938Z,1031.74
2019-02-24T06:58:25.907Z,1031.70
2019-02-24T06:59:25.885Z,1031.71
2019-02-24T07:00:25.880Z,1031.78
2019-02-24T07:01:25.874Z,1031.77
2019-02-24T07:02:25.859Z,1031.71
2019-02-24T07:03:25.860Z,1031.82
2019-02-24T07:04:25.843Z,1031.78
2019-02-24T07:05:25.822Z,1031.82
2019-02-24T07:06:25.815Z,1031.77
2019-02-24T07:07:25.812Z,1031.80
2019-02-24T07:08:25.829Z,1031.78
2019-02-24T07:09:25.790Z,1031.77
2019-02-24T07:10:25.782Z,1031.74
2019-02-24T07:11:25.763Z,1031.77
2019-02-24T07:12:25.752Z,1031.79
2019-02-24T07:13:25.740Z,1031.84
2019-02-24T07:14:25.754Z,1031.82
2019-02-24T07:15:25.725Z,1031.91
2019-02-24T07:16:25.719Z,1031.85
2019-02-24T07:17:25.702Z,1031.87
2019-02-24T07:18:25.690Z,1031.84
2019-02-24T07:19:25.683Z,1031.84
2019-02-24T07:20:25.697Z,1031.81
2019-02-24T07:21:25.670Z,1031.85
2019-02-24T07:22:25.657Z,1031.77
2019-02-24T07:23:25.638Z,1031.70
2019-02-24T07:24:25.628Z,1031.70
2019-02-24T07:25:25.636Z,1031.72
2019-02-24T07:26:25.604Z,1031.76
2019-02-24T07:27:25.603Z,1031.69
2019-02-24T07:28:25.597Z,1031.71
2019-02-24T07:29:25.588Z,1031.70
2019-02-24T07:30:25.571Z,1031.74
2019-02-24T07:31:25.576Z,1031.78
2019-02-24T07:32:25.548Z,1031.79
2019-02-24T07:33:25.595Z,1031.77
2019-02-24T07:34:25.538Z,1031.86
2019-02-24T07:35:25.516Z,1031.87
2019-02-24T07:36:25.533Z,1031.80
2019-02-24T07:37:25.506Z,1031.73
2019-02-24T07:38:25.486Z,1031.72
2019-02-24T07:39:25.475Z,1031.75
2019-02-24T07:40:25.473Z,1031.69
2019-02-24T07:41:25.476Z,1031.68
2019-02-24T07:42:25.485Z,1031.58
2019-02-24T07:43:25.432Z,1031.59
2019-02-24T07:44:25.419Z,1031.58
2019-02-24T07:45:25.411Z,1031.55
2019-02-24T07:46:25.453Z,1031.56
2019-02-24T07:47:25.395Z,1031.54
2019-02-24T07:48:25.414Z,1031.57
2019-02-24T07:49:25.370Z,1031.57
2019-02-24T07:50:25.358Z,1031.50
2019-02-24T07:51:25.355Z,1031.49
2019-02-24T07:52:25.344Z,1031.56
2019-02-24T07:53:25.333Z,1031.59
2019-02-24T07:54:25.347Z,1031.65
2019-02-24T07:55:25.308Z,1031.63
2019-02-24T07:56:25.298Z,1031.59
2019-02-24T07:57:25.310Z,1031.67
2019-02-24T07:58:25.315Z,1031.65
2019-02-24T07:59:25.295Z,1031.64
2019-02-24T08:00:31.934Z,1031.65
2019-02-24T08:01:26.289Z,1031.61
2019-02-24T08:02:25.286Z,1031.65
2019-02-24T08:03:25.247Z,1031.67
2019-02-24T08:04:25.519Z,1031.67
2019-02-24T08:05:25.205Z,1031.58
2019-02-24T08:06:25.225Z,1031.58
2019-02-24T08:07:25.177Z,1031.57
2019-02-24T08:08:25.185Z,1031.60
2019-02-24T08:09:25.160Z,1031.59
2019-02-24T08:10:25.151Z,1031.65
2019-02-24T08:11:25.142Z,1031.66
2019-02-24T08:12:25.136Z,1031.61
2019-02-24T08:13:25.132Z,1031.62
2019-02-24T08:14:25.137Z,1031.63
2019-02-24T08:15:25.094Z,1031.60
2019-02-24T08:16:25.085Z,1031.60
2019-02-24T08:17:25.075Z,1031.61
2019-02-24T08:18:25.082Z,1031.61
2019-02-24T08:19:25.358Z,1031.48
2019-02-24T08:20:25.049Z,1031.51
2019-02-24T08:21:25.069Z,1031.58
2019-02-24T08:22:25.023Z,1031.55
2019-02-24T08:23:25.019Z,1031.54
2019-02-24T08:24:25.139Z,1031.58
2019-02-24T08:25:25.186Z,1031.59
2019-02-24T08:26:25.024Z,1031.52
2019-02-24T08:27:24.991Z,1031.52
2019-02-24T08:28:24.960Z,1031.43
2019-02-24T08:29:24.958Z,1031.47
2019-02-24T08:30:24.974Z,1031.47
2019-02-24T08:31:24.935Z,1031.46
2019-02-24T08:32:24.932Z,1031.48
2019-02-24T08:33:24.988Z,1031.39
2019-02-24T08:34:24.965Z,1031.40
2019-02-24T08:35:24.933Z,1031.39
2019-02-24T08:36:24.917Z,1031.42
2019-02-24T08:37:24.871Z,1031.46
2019-02-24T08:38:24.870Z,1031.40
2019-02-24T08:39:24.935Z,1031.47
2019-02-24T08:40:24.840Z,1031.45
2019-02-24T08:41:24.851Z,1031.43
2019-02-24T08:42:24.826Z,1031.35
2019-02-24T08:43:24.810Z,1031.44
2019-02-24T08:44:24.799Z,1031.39
2019-02-24T08:45:24.798Z,1031.39
2019-02-24T08:46:24.794Z,1031.45
2019-02-24T08:47:24.870Z,1031.39
2019-02-24T08:48:24.763Z,1031.35
2019-02-24T08:49:24.896Z,1031.36
2019-02-24T08:50:24.727Z,1031.49
2019-02-24T08:51:24.724Z,1031.42
2019-02-24T08:52:24.768Z,1031.45
2019-02-24T08:53:24.723Z,1031.38
2019-02-24T08:54:24.697Z,1031.35
2019-02-24T08:55:24.684Z,1031.37
2019-02-24T08:56:24.837Z,1031.44
2019-02-24T08:57:24.678Z,1031.40
2019-02-24T08:58:24.683Z,1031.41
2019-02-24T08:59:24.632Z,1031.42
2019-02-24T09:00:24.621Z,1031.44
2019-02-24T09:01:24.612Z,1031.39
2019-02-24T09:02:24.688Z,1031.33
2019-02-24T09:03:24.629Z,1031.31
2019-02-24T09:04:24.647Z,1031.32
2019-02-24T09:05:24.576Z,1031.33
2019-02-24T09:06:24.567Z,1031.34
2019-02-24T09:07:24.551Z,1031.26
2019-02-24T09:08:25.103Z,1031.29
2019-02-24T09:09:24.551Z,1031.31
2019-02-24T09:10:24.521Z,1031.28
2019-02-24T09:11:24.568Z,1031.30
2019-02-24T09:12:24.500Z,1031.21
2019-02-24T09:13:24.542Z,1031.21
2019-02-24T09:14:24.603Z,1031.13
2019-02-24T09:15:24.481Z,1031.14
2019-02-24T09:16:24.459Z,1031.13
2019-02-24T09:17:24.466Z,1031.18
2019-02-24T09:18:24.504Z,1031.18
2019-02-24T09:19:24.419Z,1031.23
2019-02-24T09:20:24.428Z,1031.23
2019-02-24T09:21:24.491Z,1031.27
2019-02-24T09:22:24.427Z,1031.27
2019-02-24T09:23:24.417Z,1031.31
2019-02-24T09:24:24.418Z,1031.27
2019-02-24T09:25:24.360Z,1031.30
2019-02-24T09:26:24.420Z,1031.31
2019-02-24T09:27:24.428Z,1031.43
2019-02-24T09:28:24.390Z,1031.43
2019-02-24T09:29:24.338Z,1031.51
2019-02-24T09:30:24.349Z,1031.52
2019-02-24T09:31:24.347Z,1031.59
2019-02-24T09:32:24.286Z,1031.63
2019-02-24T09:33:24.281Z,1031.72
2019-02-24T09:34:24.276Z,1031.75
2019-02-24T09:35:24.302Z,1031.73
2019-02-24T09:36:24.249Z,1031.69
2019-02-24T09:37:24.239Z,1031.70
2019-02-24T09:38:24.232Z,1031.71
2019-02-24T09:39:24.215Z,1031.67
2019-02-24T09:40:24.217Z,1031.64
2019-02-24T09:41:25.263Z,1031.66
2019-02-24T09:42:24.190Z,1031.66
2019-02-24T09:43:24.190Z,1031.68
2019-02-24T09:44:24.155Z,1031.61
2019-02-24T09:45:24.294Z,1031.69
2019-02-24T09:46:24.166Z,1031.69
2019-02-24T09:47:24.130Z,1031.72
2019-02-24T09:48:24.127Z,1031.72
2019-02-24T09:49:24.108Z,1031.70
2019-02-24T09:50:24.114Z,1031.70
2019-02-24T09:51:24.147Z,1031.72
2019-02-24T09:52:24.103Z,1031.69
2019-02-24T09:53:24.105Z,1031.74
2019-02-24T09:54:24.628Z,1031.72
2019-02-24T09:55:24.120Z,1031.77
2019-02-24T09:56:24.051Z,1031.76
2019-02-24T09:57:24.039Z,1031.77
2019-02-24T09:58:24.006Z,1031.74
2019-02-24T09:59:24.002Z,1031.78
2019-02-24T10:00:23.986Z,1031.85
2019-02-24T10:01:24.332Z,1031.79
2019-02-24T10:02:23.980Z,1031.89
2019-02-24T10:03:23.978Z,1031.84
2019-02-24T10:04:23.943Z,1031.86
2019-02-24T10:05:24.690Z,1031.81
2019-02-24T10:06:26.649Z,1031.79
2019-02-24T10:07:23.987Z,1031.84
2019-02-24T10:08:23.908Z,1031.78
2019-02-24T10:09:23.918Z,1031.82
2019-02-24T10:10:23.927Z,1031.74
2019-02-24T10:11:23.869Z,1031.77
2019-02-24T10:12:23.875Z,1031.76
2019-02-24T10:13:23.850Z,1031.74
2019-02-24T10:14:23.848Z,1031.73
2019-02-24T10:15:23.827Z,1031.69
2019-02-24T10:16:23.850Z,1031.69
2019-02-24T10:17:24.629Z,1031.63
2019-02-24T10:18:23.797Z,1031.68
2019-02-24T10:19:23.786Z,1031.67
2019-02-24T10:20:23.785Z,1031.69
2019-02-24T10:21:23.789Z,1031.70
2019-02-24T10:22:23.757Z,1031.67
2019-02-24T10:23:24.636Z,1031.67
2019-02-24T10:24:23.729Z,1031.69
2019-02-24T10:25:23.718Z,1031.71
2019-02-24T10:26:23.747Z,1031.68
2019-02-24T10:27:23.725Z,1031.73
2019-02-24T10:28:23.752Z,1031.71
2019-02-24T10:29:23.677Z,1031.75
2019-02-24T10:30:23.711Z,1031.76
2019-02-24T10:31:23.667Z,1031.78
2019-02-24T10:32:23.666Z,1031.83
2019-02-24T10:33:23.654Z,1031.81
2019-02-24T10:34:23.673Z,1031.81
2019-02-24T10:35:23.634Z,1031.92
2019-02-24T10:36:23.605Z,1031.97
2019-02-24T10:37:23.592Z,1031.94
2019-02-24T10:38:23.597Z,1031.99
2019-02-24T10:39:29.727Z,1031.98
2019-02-24T10:40:24.593Z,1031.97
2019-02-24T10:41:23.564Z,1031.95
2019-02-24T10:42:23.547Z,1031.91
2019-02-24T10:43:23.535Z,1031.88
2019-02-24T10:44:23.536Z,1031.84
2019-02-24T10:45:23.561Z,1031.86
2019-02-24T10:46:23.515Z,1031.81
2019-02-24T10:47:23.499Z,1031.86
2019-02-24T10:48:23.481Z,1031.83
2019-02-24T10:49:23.479Z,1031.88
2019-02-24T10:50:23.465Z,1031.89
2019-02-24T10:51:25.340Z,1031.86
2019-02-24T10:52:23.452Z,1031.91
2019-02-24T10:53:23.434Z,1031.95
2019-02-24T10:54:23.438Z,1031.89
2019-02-24T10:55:23.412Z,1031.94
2019-02-24T10:56:23.433Z,1031.95
2019-02-24T10:57:23.417Z,1031.88
2019-02-24T10:58:23.383Z,1031.89
2019-02-24T10:59:23.375Z,1031.90
2019-02-24T11:00:23.368Z,1031.90
2019-02-24T11:01:29.631Z,1031.84
2019-02-24T11:02:24.336Z,1031.88
2019-02-24T11:03:23.383Z,1031.84
2019-02-24T11:04:23.335Z,1031.84
2019-02-24T11:05:23.311Z,1031.85
2019-02-24T11:06:23.306Z,1031.87
2019-02-24T11:07:23.312Z,1031.89
2019-02-24T11:08:23.293Z,1031.85
2019-02-24T11:09:23.284Z,1031.80
2019-02-24T11:10:23.269Z,1031.78
2019-02-24T11:11:23.304Z,1031.82
2019-02-24T11:12:23.265Z,1031.84
2019-02-24T11:13:23.258Z,1031.87
2019-02-24T11:14:23.231Z,1031.89
2019-02-24T11:15:23.205Z,1031.87
2019-02-24T11:16:23.206Z,1031.80
2019-02-24T11:17:23.188Z,1031.80
2019-02-24T11:18:23.226Z,1031.88
2019-02-24T11:19:23.168Z,1031.87
2019-02-24T11:20:23.214Z,1031.84
2019-02-24T11:21:23.161Z,1031.88
2019-02-24T11:22:23.145Z,1031.88
2019-02-24T11:23:23.155Z,1031.87
2019-02-24T11:24:23.166Z,1031.92
2019-02-24T11:25:24.606Z,1031.88
2019-02-24T11:26:23.111Z,1031.85
2019-02-24T11:27:23.096Z,1031.85
2019-02-24T11:28:23.102Z,1031.86
2019-02-24T11:29:23.064Z,1031.87
2019-02-24T11:30:23.127Z,1031.91
2019-02-24T11:31:23.057Z,1031.84
2019-02-24T11:32:23.049Z,1031.86
2019-02-24T11:33:24.058Z,1031.87
2019-02-24T11:34:23.056Z,1031.87
2019-02-24T11:35:23.012Z,1031.80
2019-02-24T11:36:23.014Z,1031.85
2019-02-24T11:37:22.998Z,1031.91
2019-02-24T11:38:23.016Z,1031.85
2019-02-24T11:39:22.975Z,1031.85
2019-02-24T11:40:22.991Z,1031.82
2019-02-24T11:41:22.970Z,1031.83
2019-02-24T11:42:22.984Z,1031.84
2019-02-24T11:43:22.969Z,1031.86
2019-02-24T11:44:22.935Z,1031.93
2019-02-24T11:45:22.940Z,1031.91
2019-02-24T11:46:22.927Z,1031.93
2019-02-24T11:47:22.918Z,1031.82
2019-02-24T11:48:22.915Z,1031.84
2019-02-24T11:49:24.083Z,1031.97
2019-02-24T11:50:22.890Z,1031.89
2019-02-24T11:51:22.909Z,1031.94
2019-02-24T11:52:22.857Z,1031.93
2019-02-24T11:53:22.835Z,1031.92
2019-02-24T11:54:22.857Z,1032.01
2019-02-24T11:55:22.817Z,1031.99
2019-02-24T11:56:22.815Z,1032.07
2019-02-24T11:57:22.808Z,1032.04
2019-02-24T11:58:22.788Z,1032.08
2019-02-24T11:59:22.780Z,1032.04
2019-02-24T12:00:22.795Z,1032.03
2019-02-24T12:01:22.754Z,1032.02
2019-02-24T12:02:22.786Z,1032.02
2019-02-24T12:03:22.750Z,1031.94
2019-02-24T12:04:22.741Z,1031.96
2019-02-24T12:05:22.823Z,1031.93